sensor_id;sensor_type;location;lat;lon;timestamp;P1;durP1;ratioP1;P2;durP2;ratioP2
48516;SDS011;34310;51.904;4.256;2023-05-07T00:00:09;6.90;;;5.40;;
48516;SDS011;34310;51.904;4.256;2023-05-07T00:02:37;5.50;;;5.00;;
48516;SDS011;34310;51.904;4.256;2023-05-07T00:05:05;5.15;;;4.47;;
48516;SDS011;34310;51.904;4.256;2023-05-07T00:07:33;5.45;;;4.88;;
48516;SDS011;34310;51.904;4.256;2023-05-07T00:10:01;5.30;;;4.80;;
48516;SDS011;34310;51.904;4.256;2023-05-07T00:12:30;5.35;;;4.60;;
48516;SDS011;34310;51.904;4.256;2023-05-07T00:15:01;5.50;;;4.93;;
48516;SDS011;34310;51.904;4.256;2023-05-07T00:17:29;5.15;;;4.65;;
48516;SDS011;34310;51.904;4.256;2023-05-07T00:19:57;5.85;;;5.05;;
48516;SDS011;34310;51.904;4.256;2023-05-07T00:22:24;5.47;;;4.90;;
48516;SDS011;34310;51.904;4.256;2023-05-07T00:24:52;5.05;;;4.55;;
48516;SDS011;34310;51.904;4.256;2023-05-07T00:27:19;5.20;;;4.70;;
48516;SDS011;34310;51.904;4.256;2023-05-07T00:29:47;5.35;;;4.57;;
48516;SDS011;34310;51.904;4.256;2023-05-07T00:32:14;5.15;;;4.70;;
48516;SDS011;34310;51.904;4.256;2023-05-07T00:34:42;5.65;;;4.68;;
48516;SDS011;34310;51.904;4.256;2023-05-07T00:37:10;4.90;;;4.40;;
48516;SDS011;34310;51.904;4.256;2023-05-07T00:39:38;5.38;;;4.88;;
48516;SDS011;34310;51.904;4.256;2023-05-07T00:42:05;5.82;;;5.32;;
48516;SDS011;34310;51.904;4.256;2023-05-07T00:44:32;5.07;;;4.57;;
48516;SDS011;34310;51.904;4.256;2023-05-07T00:47:01;5.30;;;4.78;;
48516;SDS011;34310;51.904;4.256;2023-05-07T00:49:34;5.50;;;5.00;;
48516;SDS011;34310;51.904;4.256;2023-05-07T00:52:13;6.47;;;5.15;;
48516;SDS011;34310;51.904;4.256;2023-05-07T00:54:42;5.30;;;4.82;;
48516;SDS011;34310;51.904;4.256;2023-05-07T00:57:10;5.60;;;4.93;;
48516;SDS011;34310;51.904;4.256;2023-05-07T00:59:38;5.68;;;5.07;;
48516;SDS011;34310;51.904;4.256;2023-05-07T01:02:07;5.40;;;4.90;;
48516;SDS011;34310;51.904;4.256;2023-05-07T01:04:35;5.35;;;4.85;;
48516;SDS011;34310;51.904;4.256;2023-05-07T01:07:03;5.47;;;5.03;;
48516;SDS011;34310;51.904;4.256;2023-05-07T01:09:31;5.78;;;5.15;;
48516;SDS011;34310;51.904;4.256;2023-05-07T01:11:58;5.90;;;5.32;;
48516;SDS011;34310;51.904;4.256;2023-05-07T01:14:26;5.65;;;5.15;;
48516;SDS011;34310;51.904;4.256;2023-05-07T01:16:54;5.80;;;5.30;;
48516;SDS011;34310;51.904;4.256;2023-05-07T01:19:21;5.47;;;4.97;;
48516;SDS011;34310;51.904;4.256;2023-05-07T01:21:49;4.88;;;4.47;;
48516;SDS011;34310;51.904;4.256;2023-05-07T01:24:23;5.50;;;5.05;;
48516;SDS011;34310;51.904;4.256;2023-05-07T01:26:50;5.13;;;4.63;;
48516;SDS011;34310;51.904;4.256;2023-05-07T01:29:17;5.18;;;4.68;;
48516;SDS011;34310;51.904;4.256;2023-05-07T01:31:45;5.38;;;4.88;;
48516;SDS011;34310;51.904;4.256;2023-05-07T01:34:13;5.20;;;4.70;;
48516;SDS011;34310;51.904;4.256;2023-05-07T01:36:43;5.38;;;4.88;;
48516;SDS011;34310;51.904;4.256;2023-05-07T01:39:12;5.40;;;4.90;;
48516;SDS011;34310;51.904;4.256;2023-05-07T01:41:40;5.07;;;4.57;;
48516;SDS011;34310;51.904;4.256;2023-05-07T01:44:10;5.20;;;4.70;;
48516;SDS011;34310;51.904;4.256;2023-05-07T01:46:38;5.50;;;5.00;;
48516;SDS011;34310;51.904;4.256;2023-05-07T01:49:06;5.50;;;5.00;;
48516;SDS011;34310;51.904;4.256;2023-05-07T01:51:34;5.53;;;5.00;;
48516;SDS011;34310;51.904;4.256;2023-05-07T01:54:01;5.13;;;4.63;;
48516;SDS011;34310;51.904;4.256;2023-05-07T01:56:28;5.90;;;5.30;;
48516;SDS011;34310;51.904;4.256;2023-05-07T01:58:56;5.70;;;5.15;;
48516;SDS011;34310;51.904;4.256;2023-05-07T02:01:23;5.05;;;4.63;;
48516;SDS011;34310;51.904;4.256;2023-05-07T02:03:51;5.72;;;5.22;;
48516;SDS011;34310;51.904;4.256;2023-05-07T02:06:20;5.50;;;5.00;;
48516;SDS011;34310;51.904;4.256;2023-05-07T02:08:47;6.47;;;5.15;;
48516;SDS011;34310;51.904;4.256;2023-05-07T02:11:14;5.78;;;5.18;;
48516;SDS011;34310;51.904;4.256;2023-05-07T02:13:42;5.22;;;4.80;;
48516;SDS011;34310;51.904;4.256;2023-05-07T02:16:09;5.80;;;5.20;;
48516;SDS011;34310;51.904;4.256;2023-05-07T02:18:37;5.30;;;4.80;;
48516;SDS011;34310;51.904;4.256;2023-05-07T02:21:04;5.10;;;4.70;;
48516;SDS011;34310;51.904;4.256;2023-05-07T02:23:31;5.43;;;4.90;;
48516;SDS011;34310;51.904;4.256;2023-05-07T02:25:59;5.80;;;5.30;;
48516;SDS011;34310;51.904;4.256;2023-05-07T02:28:26;5.75;;;5.15;;
48516;SDS011;34310;51.904;4.256;2023-05-07T02:30:53;5.35;;;4.85;;
48516;SDS011;34310;51.904;4.256;2023-05-07T02:33:21;5.30;;;4.88;;
48516;SDS011;34310;51.904;4.256;2023-05-07T02:35:48;5.70;;;5.20;;
48516;SDS011;34310;51.904;4.256;2023-05-07T02:38:15;5.80;;;5.30;;
48516;SDS011;34310;51.904;4.256;2023-05-07T02:40:43;5.78;;;5.25;;
48516;SDS011;34310;51.904;4.256;2023-05-07T02:43:10;5.65;;;5.15;;
48516;SDS011;34310;51.904;4.256;2023-05-07T02:45:37;5.13;;;4.70;;
48516;SDS011;34310;51.904;4.256;2023-05-07T02:48:05;5.13;;;4.53;;
48516;SDS011;34310;51.904;4.256;2023-05-07T02:50:32;5.32;;;4.82;;
48516;SDS011;34310;51.904;4.256;2023-05-07T02:53:00;5.10;;;4.60;;
48516;SDS011;34310;51.904;4.256;2023-05-07T02:55:27;5.10;;;4.68;;
48516;SDS011;34310;51.904;4.256;2023-05-07T02:57:54;5.45;;;4.95;;
48516;SDS011;34310;51.904;4.256;2023-05-07T03:00:22;4.80;;;4.40;;
48516;SDS011;34310;51.904;4.256;2023-05-07T03:02:49;5.20;;;4.70;;
48516;SDS011;34310;51.904;4.256;2023-05-07T03:05:17;4.85;;;4.45;;
48516;SDS011;34310;51.904;4.256;2023-05-07T03:07:44;5.10;;;4.65;;
48516;SDS011;34310;51.904;4.256;2023-05-07T03:10:12;5.60;;;5.03;;
48516;SDS011;34310;51.904;4.256;2023-05-07T03:12:39;4.93;;;4.43;;
48516;SDS011;34310;51.904;4.256;2023-05-07T03:15:07;5.03;;;4.53;;
48516;SDS011;34310;51.904;4.256;2023-05-07T03:17:35;5.07;;;4.57;;
48516;SDS011;34310;51.904;4.256;2023-05-07T03:20:02;5.40;;;4.75;;
48516;SDS011;34310;51.904;4.256;2023-05-07T03:22:30;5.30;;;4.80;;
48516;SDS011;34310;51.904;4.256;2023-05-07T03:24:57;4.88;;;4.47;;
48516;SDS011;34310;51.904;4.256;2023-05-07T03:27:24;5.18;;;4.68;;
48516;SDS011;34310;51.904;4.256;2023-05-07T03:29:52;4.97;;;4.47;;
48516;SDS011;34310;51.904;4.256;2023-05-07T03:32:19;4.90;;;4.40;;
48516;SDS011;34310;51.904;4.256;2023-05-07T03:34:46;4.72;;;4.32;;
48516;SDS011;34310;51.904;4.256;2023-05-07T03:37:13;4.88;;;4.38;;
48516;SDS011;34310;51.904;4.256;2023-05-07T03:39:41;4.50;;;4.10;;
48516;SDS011;34310;51.904;4.256;2023-05-07T03:42:08;4.53;;;4.13;;
48516;SDS011;34310;51.904;4.256;2023-05-07T03:44:36;4.85;;;4.32;;
48516;SDS011;34310;51.904;4.256;2023-05-07T03:47:03;4.57;;;4.18;;
48516;SDS011;34310;51.904;4.256;2023-05-07T03:49:31;4.90;;;4.50;;
48516;SDS011;34310;51.904;4.256;2023-05-07T03:51:58;4.10;;;3.80;;
48516;SDS011;34310;51.904;4.256;2023-05-07T03:54:25;4.53;;;4.13;;
48516;SDS011;34310;51.904;4.256;2023-05-07T03:56:52;4.60;;;4.20;;
48516;SDS011;34310;51.904;4.256;2023-05-07T03:59:20;4.45;;;4.05;;
48516;SDS011;34310;51.904;4.256;2023-05-07T04:01:48;4.78;;;4.38;;
48516;SDS011;34310;51.904;4.256;2023-05-07T04:04:15;4.53;;;4.13;;
48516;SDS011;34310;51.904;4.256;2023-05-07T04:06:43;4.75;;;4.35;;
48516;SDS011;34310;51.904;4.256;2023-05-07T04:09:10;4.60;;;4.15;;
48516;SDS011;34310;51.904;4.256;2023-05-07T04:11:37;4.18;;;3.80;;
48516;SDS011;34310;51.904;4.256;2023-05-07T04:14:06;4.60;;;4.20;;
48516;SDS011;34310;51.904;4.256;2023-05-07T04:16:34;4.40;;;4.00;;
48516;SDS011;34310;51.904;4.256;2023-05-07T04:19:01;4.25;;;3.90;;
48516;SDS011;34310;51.904;4.256;2023-05-07T04:21:29;4.18;;;3.83;;
48516;SDS011;34310;51.904;4.256;2023-05-07T04:23:56;4.55;;;4.15;;
48516;SDS011;34310;51.904;4.256;2023-05-07T04:26:24;4.30;;;3.90;;
48516;SDS011;34310;51.904;4.256;2023-05-07T04:28:51;4.13;;;3.72;;
48516;SDS011;34310;51.904;4.256;2023-05-07T04:31:19;4.40;;;4.00;;
48516;SDS011;34310;51.904;4.256;2023-05-07T04:33:47;3.97;;;3.67;;
48516;SDS011;34310;51.904;4.256;2023-05-07T04:36:15;4.03;;;3.63;;
48516;SDS011;34310;51.904;4.256;2023-05-07T04:38:42;4.03;;;3.63;;
48516;SDS011;34310;51.904;4.256;2023-05-07T04:41:09;4.57;;;4.18;;
48516;SDS011;34310;51.904;4.256;2023-05-07T04:43:38;3.92;;;3.58;;
48516;SDS011;34310;51.904;4.256;2023-05-07T04:46:06;4.00;;;3.70;;
48516;SDS011;34310;51.904;4.256;2023-05-07T04:48:33;4.05;;;3.65;;
48516;SDS011;34310;51.904;4.256;2023-05-07T04:51:00;4.15;;;3.75;;
48516;SDS011;34310;51.904;4.256;2023-05-07T04:53:28;4.18;;;3.78;;
48516;SDS011;34310;51.904;4.256;2023-05-07T04:55:56;4.78;;;4.32;;
48516;SDS011;34310;51.904;4.256;2023-05-07T04:58:23;4.55;;;4.15;;
48516;SDS011;34310;51.904;4.256;2023-05-07T05:00:51;4.15;;;3.75;;
48516;SDS011;34310;51.904;4.256;2023-05-07T05:03:18;4.13;;;3.75;;
48516;SDS011;34310;51.904;4.256;2023-05-07T05:05:45;4.57;;;4.18;;
48516;SDS011;34310;51.904;4.256;2023-05-07T05:08:14;4.00;;;3.70;;
48516;SDS011;34310;51.904;4.256;2023-05-07T05:10:43;4.50;;;4.10;;
48516;SDS011;34310;51.904;4.256;2023-05-07T05:13:10;4.07;;;3.78;;
48516;SDS011;34310;51.904;4.256;2023-05-07T05:15:39;4.20;;;3.80;;
48516;SDS011;34310;51.904;4.256;2023-05-07T05:18:06;4.03;;;3.70;;
48516;SDS011;34310;51.904;4.256;2023-05-07T05:20:33;4.18;;;3.78;;
48516;SDS011;34310;51.904;4.256;2023-05-07T05:23:01;4.35;;;3.72;;
48516;SDS011;34310;51.904;4.256;2023-05-07T05:25:28;4.00;;;3.60;;
48516;SDS011;34310;51.904;4.256;2023-05-07T05:27:56;3.85;;;3.55;;
48516;SDS011;34310;51.904;4.256;2023-05-07T05:30:23;3.67;;;3.38;;
48516;SDS011;34310;51.904;4.256;2023-05-07T05:32:50;4.35;;;3.78;;
48516;SDS011;34310;51.904;4.256;2023-05-07T05:35:18;3.75;;;3.45;;
48516;SDS011;34310;51.904;4.256;2023-05-07T05:37:45;3.67;;;3.38;;
48516;SDS011;34310;51.904;4.256;2023-05-07T05:40:12;3.80;;;3.50;;
48516;SDS011;34310;51.904;4.256;2023-05-07T05:42:40;3.47;;;3.17;;
48516;SDS011;34310;51.904;4.256;2023-05-07T05:45:07;4.25;;;3.90;;
48516;SDS011;34310;51.904;4.256;2023-05-07T05:47:35;3.90;;;3.50;;
48516;SDS011;34310;51.904;4.256;2023-05-07T05:50:03;3.72;;;3.42;;
48516;SDS011;34310;51.904;4.256;2023-05-07T05:52:32;3.42;;;3.00;;
48516;SDS011;34310;51.904;4.256;2023-05-07T05:54:59;4.10;;;3.70;;
48516;SDS011;34310;51.904;4.256;2023-05-07T05:57:27;3.80;;;3.50;;
48516;SDS011;34310;51.904;4.256;2023-05-07T05:59:54;3.80;;;3.50;;
48516;SDS011;34310;51.904;4.256;2023-05-07T06:02:21;3.83;;;3.50;;
48516;SDS011;34310;51.904;4.256;2023-05-07T06:04:49;3.92;;;3.63;;
48516;SDS011;34310;51.904;4.256;2023-05-07T06:07:16;4.28;;;3.88;;
48516;SDS011;34310;51.904;4.256;2023-05-07T06:09:43;3.72;;;3.42;;
48516;SDS011;34310;51.904;4.256;2023-05-07T06:12:11;3.55;;;3.25;;
48516;SDS011;34310;51.904;4.256;2023-05-07T06:14:38;3.72;;;3.42;;
48516;SDS011;34310;51.904;4.256;2023-05-07T06:17:07;4.20;;;3.80;;
48516;SDS011;34310;51.904;4.256;2023-05-07T06:19:34;4.35;;;3.95;;
48516;SDS011;34310;51.904;4.256;2023-05-07T06:22:01;3.80;;;3.50;;
48516;SDS011;34310;51.904;4.256;2023-05-07T06:24:29;4.65;;;3.90;;
48516;SDS011;34310;51.904;4.256;2023-05-07T06:26:56;4.63;;;4.22;;
48516;SDS011;34310;51.904;4.256;2023-05-07T06:29:24;4.40;;;4.00;;
48516;SDS011;34310;51.904;4.256;2023-05-07T06:31:55;3.90;;;3.60;;
48516;SDS011;34310;51.904;4.256;2023-05-07T06:34:22;4.13;;;3.72;;
48516;SDS011;34310;51.904;4.256;2023-05-07T06:36:49;4.07;;;3.67;;
48516;SDS011;34310;51.904;4.256;2023-05-07T06:39:17;4.45;;;4.05;;
48516;SDS011;34310;51.904;4.256;2023-05-07T06:41:44;4.20;;;3.80;;
48516;SDS011;34310;51.904;4.256;2023-05-07T06:44:11;4.75;;;4.25;;
48516;SDS011;34310;51.904;4.256;2023-05-07T06:46:39;4.35;;;3.95;;
48516;SDS011;34310;51.904;4.256;2023-05-07T06:49:06;4.40;;;4.00;;
48516;SDS011;34310;51.904;4.256;2023-05-07T06:51:33;4.55;;;4.15;;
48516;SDS011;34310;51.904;4.256;2023-05-07T06:54:01;4.40;;;4.00;;
48516;SDS011;34310;51.904;4.256;2023-05-07T06:56:30;4.70;;;4.30;;
48516;SDS011;34310;51.904;4.256;2023-05-07T06:58:59;4.60;;;4.10;;
48516;SDS011;34310;51.904;4.256;2023-05-07T07:01:27;5.07;;;4.32;;
48516;SDS011;34310;51.904;4.256;2023-05-07T07:03:55;5.05;;;4.53;;
48516;SDS011;34310;51.904;4.256;2023-05-07T07:06:22;5.00;;;4.50;;
48516;SDS011;34310;51.904;4.256;2023-05-07T07:08:50;4.65;;;4.25;;
48516;SDS011;34310;51.904;4.256;2023-05-07T07:11:17;3.50;;;3.20;;
48516;SDS011;34310;51.904;4.256;2023-05-07T07:13:44;4.10;;;3.70;;
48516;SDS011;34310;51.904;4.256;2023-05-07T07:16:11;4.05;;;3.63;;
48516;SDS011;34310;51.904;4.256;2023-05-07T07:18:39;4.03;;;3.72;;
48516;SDS011;34310;51.904;4.256;2023-05-07T07:21:06;3.33;;;3.03;;
48516;SDS011;34310;51.904;4.256;2023-05-07T07:23:34;4.07;;;3.65;;
48516;SDS011;34310;51.904;4.256;2023-05-07T07:26:01;4.03;;;3.47;;
48516;SDS011;34310;51.904;4.256;2023-05-07T07:28:28;3.80;;;3.40;;
48516;SDS011;34310;51.904;4.256;2023-05-07T07:30:56;4.07;;;3.70;;
48516;SDS011;34310;51.904;4.256;2023-05-07T07:33:23;4.13;;;3.67;;
48516;SDS011;34310;51.904;4.256;2023-05-07T07:35:51;4.00;;;3.47;;
48516;SDS011;34310;51.904;4.256;2023-05-07T07:38:18;3.90;;;3.50;;
48516;SDS011;34310;51.904;4.256;2023-05-07T07:40:47;3.78;;;3.33;;
48516;SDS011;34310;51.904;4.256;2023-05-07T07:43:14;3.72;;;3.42;;
48516;SDS011;34310;51.904;4.256;2023-05-07T07:45:42;3.33;;;3.03;;
48516;SDS011;34310;51.904;4.256;2023-05-07T07:48:09;3.42;;;3.10;;
48516;SDS011;34310;51.904;4.256;2023-05-07T07:50:37;3.40;;;3.10;;
48516;SDS011;34310;51.904;4.256;2023-05-07T07:53:11;3.53;;;3.10;;
48516;SDS011;34310;51.904;4.256;2023-05-07T07:55:39;3.55;;;2.95;;
48516;SDS011;34310;51.904;4.256;2023-05-07T07:58:06;3.75;;;3.45;;
48516;SDS011;34310;51.904;4.256;2023-05-07T08:00:34;3.60;;;3.30;;
48516;SDS011;34310;51.904;4.256;2023-05-07T08:03:01;3.72;;;3.42;;
48516;SDS011;34310;51.904;4.256;2023-05-07T08:05:29;5.25;;;3.20;;
48516;SDS011;34310;51.904;4.256;2023-05-07T08:07:57;4.93;;;3.85;;
48516;SDS011;34310;51.904;4.256;2023-05-07T08:10:24;5.07;;;3.78;;
48516;SDS011;34310;51.904;4.256;2023-05-07T08:12:52;5.43;;;3.80;;
48516;SDS011;34310;51.904;4.256;2023-05-07T08:15:19;10.95;;;4.00;;
48516;SDS011;34310;51.904;4.256;2023-05-07T08:17:47;4.88;;;3.75;;
48516;SDS011;34310;51.904;4.256;2023-05-07T08:20:14;5.25;;;3.33;;
48516;SDS011;34310;51.904;4.256;2023-05-07T08:22:41;4.68;;;3.45;;
48516;SDS011;34310;51.904;4.256;2023-05-07T08:25:09;3.63;;;3.20;;
48516;SDS011;34310;51.904;4.256;2023-05-07T08:27:36;4.03;;;3.13;;
48516;SDS011;34310;51.904;4.256;2023-05-07T08:30:03;4.05;;;3.08;;
48516;SDS011;34310;51.904;4.256;2023-05-07T08:32:31;3.70;;;3.13;;
48516;SDS011;34310;51.904;4.256;2023-05-07T08:34:59;3.80;;;3.00;;
48516;SDS011;34310;51.904;4.256;2023-05-07T08:37:26;3.55;;;3.03;;
48516;SDS011;34310;51.904;4.256;2023-05-07T08:39:54;3.33;;;2.90;;
48516;SDS011;34310;51.904;4.256;2023-05-07T08:42:23;4.72;;;2.63;;
48516;SDS011;34310;51.904;4.256;2023-05-07T08:44:51;3.42;;;2.90;;
48516;SDS011;34310;51.904;4.256;2023-05-07T08:47:20;3.70;;;3.05;;
48516;SDS011;34310;51.904;4.256;2023-05-07T08:49:55;3.72;;;3.00;;
48516;SDS011;34310;51.904;4.256;2023-05-07T08:52:22;3.28;;;2.97;;
48516;SDS011;34310;51.904;4.256;2023-05-07T08:54:49;3.50;;;3.20;;
48516;SDS011;34310;51.904;4.256;2023-05-07T08:57:17;3.55;;;3.00;;
48516;SDS011;34310;51.904;4.256;2023-05-07T08:59:46;3.50;;;3.00;;
48516;SDS011;34310;51.904;4.256;2023-05-07T09:02:13;4.13;;;3.00;;
48516;SDS011;34310;51.904;4.256;2023-05-07T09:04:41;3.45;;;2.80;;
48516;SDS011;34310;51.904;4.256;2023-05-07T09:07:09;3.53;;;3.05;;
48516;SDS011;34310;51.904;4.256;2023-05-07T09:09:37;3.58;;;3.20;;
48516;SDS011;34310;51.904;4.256;2023-05-07T09:12:04;3.50;;;3.20;;
48516;SDS011;34310;51.904;4.256;2023-05-07T09:14:32;4.90;;;3.45;;
48516;SDS011;34310;51.904;4.256;2023-05-07T09:16:59;4.28;;;2.67;;
48516;SDS011;34310;51.904;4.256;2023-05-07T09:19:27;3.20;;;2.70;;
48516;SDS011;34310;51.904;4.256;2023-05-07T09:22:01;3.33;;;2.75;;
48516;SDS011;34310;51.904;4.256;2023-05-07T09:24:29;4.63;;;2.60;;
48516;SDS011;34310;51.904;4.256;2023-05-07T09:27:01;2.95;;;2.70;;
48516;SDS011;34310;51.904;4.256;2023-05-07T09:29:29;2.75;;;2.45;;
48516;SDS011;34310;51.904;4.256;2023-05-07T09:32:01;4.03;;;3.10;;
48516;SDS011;34310;51.904;4.256;2023-05-07T09:34:31;3.72;;;2.47;;
48516;SDS011;34310;51.904;4.256;2023-05-07T09:37:00;6.43;;;3.30;;
48516;SDS011;34310;51.904;4.256;2023-05-07T09:39:38;4.10;;;3.00;;
48516;SDS011;34310;51.904;4.256;2023-05-07T09:42:10;6.10;;;3.80;;
48516;SDS011;34310;51.904;4.256;2023-05-07T09:44:38;4.35;;;3.03;;
48516;SDS011;34310;51.904;4.256;2023-05-07T09:47:06;5.07;;;3.30;;
48516;SDS011;34310;51.904;4.256;2023-05-07T09:49:35;4.75;;;3.10;;
48516;SDS011;34310;51.904;4.256;2023-05-07T09:52:04;6.70;;;3.42;;
48516;SDS011;34310;51.904;4.256;2023-05-07T09:54:35;4.60;;;3.15;;
48516;SDS011;34310;51.904;4.256;2023-05-07T09:57:06;4.90;;;3.20;;
48516;SDS011;34310;51.904;4.256;2023-05-07T09:59:36;5.25;;;3.17;;
48516;SDS011;34310;51.904;4.256;2023-05-07T10:02:04;5.47;;;3.10;;
48516;SDS011;34310;51.904;4.256;2023-05-07T10:04:32;4.45;;;3.03;;
48516;SDS011;34310;51.904;4.256;2023-05-07T10:07:03;3.72;;;3.10;;
48516;SDS011;34310;51.904;4.256;2023-05-07T10:09:31;6.03;;;3.13;;
48516;SDS011;34310;51.904;4.256;2023-05-07T10:11:59;6.22;;;4.10;;
48516;SDS011;34310;51.904;4.256;2023-05-07T10:14:27;5.53;;;3.97;;
48516;SDS011;34310;51.904;4.256;2023-05-07T10:16:55;5.22;;;4.30;;
48516;SDS011;34310;51.904;4.256;2023-05-07T10:19:23;5.88;;;4.18;;
48516;SDS011;34310;51.904;4.256;2023-05-07T10:21:54;5.40;;;3.92;;
48516;SDS011;34310;51.904;4.256;2023-05-07T10:24:26;4.32;;;3.80;;
48516;SDS011;34310;51.904;4.256;2023-05-07T10:27:09;5.07;;;4.03;;
48516;SDS011;34310;51.904;4.256;2023-05-07T10:32:40;5.60;;;4.75;;
48516;SDS011;34310;51.904;4.256;2023-05-07T10:35:20;5.35;;;4.63;;
48516;SDS011;34310;51.904;4.256;2023-05-07T10:37:55;7.15;;;4.90;;
48516;SDS011;34310;51.904;4.256;2023-05-07T10:40:23;6.80;;;5.13;;
48516;SDS011;34310;51.904;4.256;2023-05-07T10:42:57;8.35;;;5.90;;
48516;SDS011;34310;51.904;4.256;2023-05-07T10:45:26;6.63;;;5.32;;
48516;SDS011;34310;51.904;4.256;2023-05-07T10:51:18;7.53;;;6.13;;
48516;SDS011;34310;51.904;4.256;2023-05-07T10:53:46;7.63;;;6.40;;
48516;SDS011;34310;51.904;4.256;2023-05-07T10:58:44;10.05;;;6.78;;
48516;SDS011;34310;51.904;4.256;2023-05-07T11:01:12;11.55;;;7.00;;
48516;SDS011;34310;51.904;4.256;2023-05-07T11:04:12;9.80;;;6.97;;
48516;SDS011;34310;51.904;4.256;2023-05-07T11:06:41;10.50;;;7.80;;
48516;SDS011;34310;51.904;4.256;2023-05-07T11:15:04;10.30;;;7.65;;
48516;SDS011;34310;51.904;4.256;2023-05-07T11:17:57;10.88;;;7.72;;
48516;SDS011;34310;51.904;4.256;2023-05-07T11:25:59;10.68;;;7.15;;
48516;SDS011;34310;51.904;4.256;2023-05-07T11:28:30;10.15;;;7.25;;
48516;SDS011;34310;51.904;4.256;2023-05-07T11:31:02;10.38;;;7.50;;
48516;SDS011;34310;51.904;4.256;2023-05-07T11:33:31;10.43;;;7.53;;
48516;SDS011;34310;51.904;4.256;2023-05-07T11:35:59;8.38;;;6.70;;
48516;SDS011;34310;51.904;4.256;2023-05-07T11:38:28;9.32;;;7.18;;
48516;SDS011;34310;51.904;4.256;2023-05-07T11:40:57;10.50;;;7.30;;
48516;SDS011;34310;51.904;4.256;2023-05-07T11:43:31;9.25;;;7.18;;
48516;SDS011;34310;51.904;4.256;2023-05-07T11:46:11;9.30;;;7.13;;
48516;SDS011;34310;51.904;4.256;2023-05-07T11:48:40;10.30;;;6.90;;
48516;SDS011;34310;51.904;4.256;2023-05-07T11:51:09;8.60;;;7.03;;
48516;SDS011;34310;51.904;4.256;2023-05-07T11:53:39;9.38;;;7.65;;
48516;SDS011;34310;51.904;4.256;2023-05-07T11:56:08;10.48;;;7.97;;
48516;SDS011;34310;51.904;4.256;2023-05-07T11:58:37;10.50;;;8.60;;
48516;SDS011;34310;51.904;4.256;2023-05-07T12:01:07;10.40;;;7.68;;
48516;SDS011;34310;51.904;4.256;2023-05-07T12:03:41;13.43;;;11.18;;
48516;SDS011;34310;51.904;4.256;2023-05-07T12:06:11;11.55;;;9.00;;
48516;SDS011;34310;51.904;4.256;2023-05-07T12:08:40;16.42;;;10.32;;
48516;SDS011;34310;51.904;4.256;2023-05-07T12:11:21;16.98;;;11.82;;
48516;SDS011;34310;51.904;4.256;2023-05-07T12:13:50;17.15;;;11.70;;
48516;SDS011;34310;51.904;4.256;2023-05-07T12:16:18;18.52;;;12.52;;
48516;SDS011;34310;51.904;4.256;2023-05-07T12:18:46;17.33;;;13.05;;
48516;SDS011;34310;51.904;4.256;2023-05-07T12:21:14;18.00;;;12.95;;
48516;SDS011;34310;51.904;4.256;2023-05-07T12:23:43;23.77;;;13.52;;
48516;SDS011;34310;51.904;4.256;2023-05-07T12:26:11;20.25;;;12.93;;
48516;SDS011;34310;51.904;4.256;2023-05-07T12:28:38;17.15;;;13.50;;
48516;SDS011;34310;51.904;4.256;2023-05-07T12:31:06;24.35;;;15.30;;
48516;SDS011;34310;51.904;4.256;2023-05-07T12:33:34;22.88;;;14.32;;
48516;SDS011;34310;51.904;4.256;2023-05-07T12:36:03;21.55;;;14.50;;
48516;SDS011;34310;51.904;4.256;2023-05-07T12:38:37;23.52;;;15.35;;
48516;SDS011;34310;51.904;4.256;2023-05-07T12:43:49;33.33;;;16.50;;
48516;SDS011;34310;51.904;4.256;2023-05-07T12:46:22;22.98;;;15.27;;
48516;SDS011;34310;51.904;4.256;2023-05-07T12:48:49;22.38;;;16.35;;
48516;SDS011;34310;51.904;4.256;2023-05-07T12:51:18;20.90;;;15.32;;
48516;SDS011;34310;51.904;4.256;2023-05-07T12:53:46;24.42;;;16.00;;
48516;SDS011;34310;51.904;4.256;2023-05-07T12:56:15;26.55;;;17.05;;
48516;SDS011;34310;51.904;4.256;2023-05-07T12:58:42;20.80;;;15.75;;
48516;SDS011;34310;51.904;4.256;2023-05-07T13:01:10;21.90;;;16.27;;
48516;SDS011;34310;51.904;4.256;2023-05-07T13:03:41;21.98;;;16.48;;
48516;SDS011;34310;51.904;4.256;2023-05-07T13:06:15;24.65;;;16.52;;
48516;SDS011;34310;51.904;4.256;2023-05-07T13:08:43;26.08;;;17.08;;
48516;SDS011;34310;51.904;4.256;2023-05-07T13:11:10;22.48;;;17.23;;
48516;SDS011;34310;51.904;4.256;2023-05-07T13:13:39;22.58;;;16.98;;
48516;SDS011;34310;51.904;4.256;2023-05-07T13:16:08;24.17;;;16.63;;
48516;SDS011;34310;51.904;4.256;2023-05-07T13:18:38;22.98;;;16.70;;
48516;SDS011;34310;51.904;4.256;2023-05-07T13:21:06;21.13;;;16.02;;
48516;SDS011;34310;51.904;4.256;2023-05-07T13:23:34;23.10;;;16.70;;
48516;SDS011;34310;51.904;4.256;2023-05-07T13:26:01;22.73;;;16.60;;
48516;SDS011;34310;51.904;4.256;2023-05-07T13:28:36;24.15;;;16.70;;
48516;SDS011;34310;51.904;4.256;2023-05-07T13:31:04;21.63;;;16.45;;
48516;SDS011;34310;51.904;4.256;2023-05-07T13:33:31;22.83;;;17.02;;
48516;SDS011;34310;51.904;4.256;2023-05-07T13:35:58;20.02;;;16.10;;
48516;SDS011;34310;51.904;4.256;2023-05-07T13:38:26;24.23;;;17.02;;
48516;SDS011;34310;51.904;4.256;2023-05-07T13:40:54;24.05;;;17.13;;
48516;SDS011;34310;51.904;4.256;2023-05-07T13:43:21;20.90;;;16.45;;
48516;SDS011;34310;51.904;4.256;2023-05-07T13:45:48;23.15;;;16.42;;
48516;SDS011;34310;51.904;4.256;2023-05-07T13:48:16;20.25;;;15.80;;
48516;SDS011;34310;51.904;4.256;2023-05-07T13:50:43;21.58;;;16.02;;
48516;SDS011;34310;51.904;4.256;2023-05-07T13:53:10;21.73;;;16.33;;
48516;SDS011;34310;51.904;4.256;2023-05-07T13:55:38;22.48;;;16.27;;
48516;SDS011;34310;51.904;4.256;2023-05-07T13:58:05;19.35;;;15.63;;
48516;SDS011;34310;51.904;4.256;2023-05-07T14:00:33;21.27;;;16.15;;
48516;SDS011;34310;51.904;4.256;2023-05-07T14:03:00;20.98;;;16.98;;
48516;SDS011;34310;51.904;4.256;2023-05-07T14:05:28;19.55;;;15.40;;
48516;SDS011;34310;51.904;4.256;2023-05-07T14:07:56;20.50;;;16.27;;
48516;SDS011;34310;51.904;4.256;2023-05-07T14:10:24;20.95;;;16.48;;
48516;SDS011;34310;51.904;4.256;2023-05-07T14:12:52;20.35;;;15.80;;
48516;SDS011;34310;51.904;4.256;2023-05-07T14:15:19;20.60;;;15.85;;
48516;SDS011;34310;51.904;4.256;2023-05-07T14:17:47;19.55;;;15.93;;
48516;SDS011;34310;51.904;4.256;2023-05-07T14:20:14;20.58;;;16.60;;
48516;SDS011;34310;51.904;4.256;2023-05-07T14:22:41;18.80;;;15.85;;
48516;SDS011;34310;51.904;4.256;2023-05-07T14:25:09;18.52;;;15.35;;
48516;SDS011;34310;51.904;4.256;2023-05-07T14:27:36;20.45;;;16.45;;
48516;SDS011;34310;51.904;4.256;2023-05-07T14:30:04;20.77;;;15.63;;
48516;SDS011;34310;51.904;4.256;2023-05-07T14:32:32;24.42;;;16.48;;
48516;SDS011;34310;51.904;4.256;2023-05-07T14:35:00;19.27;;;15.27;;
48516;SDS011;34310;51.904;4.256;2023-05-07T14:37:27;19.73;;;15.75;;
48516;SDS011;34310;51.904;4.256;2023-05-07T14:39:54;24.77;;;15.40;;
48516;SDS011;34310;51.904;4.256;2023-05-07T14:42:22;20.55;;;16.10;;
48516;SDS011;34310;51.904;4.256;2023-05-07T14:44:49;20.10;;;16.40;;
48516;SDS011;34310;51.904;4.256;2023-05-07T14:47:16;23.58;;;16.55;;
48516;SDS011;34310;51.904;4.256;2023-05-07T14:49:45;22.38;;;16.15;;
48516;SDS011;34310;51.904;4.256;2023-05-07T14:52:12;19.75;;;15.57;;
48516;SDS011;34310;51.904;4.256;2023-05-07T14:54:40;20.80;;;16.60;;
48516;SDS011;34310;51.904;4.256;2023-05-07T14:57:08;19.00;;;16.05;;
48516;SDS011;34310;51.904;4.256;2023-05-07T14:59:39;19.70;;;15.63;;
48516;SDS011;34310;51.904;4.256;2023-05-07T15:02:07;20.63;;;16.17;;
48516;SDS011;34310;51.904;4.256;2023-05-07T15:04:39;20.08;;;15.10;;
48516;SDS011;34310;51.904;4.256;2023-05-07T15:07:12;18.52;;;15.75;;
48516;SDS011;34310;51.904;4.256;2023-05-07T15:09:42;18.70;;;15.57;;